createdAt,value
2023-11-09T00:02:25.153Z,100.00
2023-11-09T00:07:27.032Z,100.00
2023-11-09T00:12:30.242Z,100.00
2023-11-09T00:17:32.142Z,100.00
2023-11-09T00:22:34.608Z,100.00
2023-11-09T00:27:36.501Z,100.00
2023-11-09T00:32:38.643Z,100.00
2023-11-09T00:37:40.682Z,100.00
2023-11-09T00:42:42.919Z,100.00
2023-11-09T00:47:46.900Z,100.00
2023-11-09T00:52:48.857Z,100.00
2023-11-09T00:57:50.847Z,100.00
2023-11-09T01:02:55.458Z,100.00
2023-11-09T01:07:57.341Z,100.00
2023-11-09T01:12:59.239Z,100.00
2023-11-09T01:18:06.660Z,100.00
2023-11-09T01:23:10.882Z,100.00
2023-11-09T01:28:12.868Z,100.00
2023-11-09T01:33:15.442Z,100.00
2023-11-09T01:38:17.511Z,100.00
2023-11-09T01:43:19.511Z,100.00
2023-11-09T01:48:22.828Z,100.00
2023-11-09T01:53:25.555Z,100.00
2023-11-09T01:58:27.950Z,100.00
2023-11-09T02:03:30.518Z,100.00
2023-11-09T02:08:33.539Z,100.00
2023-11-09T02:13:36.158Z,100.00
2023-11-09T02:18:38.013Z,100.00
2023-11-09T02:23:41.031Z,100.00
2023-11-09T02:28:46.390Z,100.00
2023-11-09T02:33:48.328Z,100.00
2023-11-09T02:38:50.263Z,100.00
2023-11-09T02:43:52.136Z,100.00
2023-11-09T02:48:54.182Z,100.00
2023-11-09T02:53:56.330Z,100.00
2023-11-09T02:58:58.326Z,100.00
2023-11-09T03:04:00.198Z,100.00
2023-11-09T03:09:02.181Z,100.00
2023-11-09T03:14:04.047Z,100.00
2023-11-09T03:19:08.336Z,100.00
2023-11-09T03:24:10.958Z,100.00
2023-11-09T03:29:13.273Z,100.00
2023-11-09T03:34:15.171Z,100.00
2023-11-09T03:39:17.096Z,100.00
2023-11-09T03:44:19.063Z,100.00
2023-11-09T03:49:21.148Z,100.00
2023-11-09T03:54:23.106Z,100.00
2023-11-09T03:59:25.229Z,100.00
2023-11-09T04:04:27.565Z,100.00
2023-11-09T04:09:29.561Z,100.00
2023-11-09T04:14:31.580Z,100.00
2023-11-09T04:19:36.225Z,100.00
2023-11-09T04:24:38.142Z,100.00
2023-11-09T04:29:40.040Z,100.00
2023-11-09T04:34:47.026Z,100.00
2023-11-09T04:39:52.314Z,100.00
2023-11-09T04:44:55.565Z,100.00
2023-11-09T04:50:02.509Z,100.00
2023-11-09T04:55:13.940Z,100.00
2023-11-09T05:00:34.675Z,100.00
2023-11-09T05:05:55.086Z,100.00
2023-11-09T05:10:58.299Z,100.00
2023-11-09T05:16:00.849Z,100.00
2023-11-09T05:21:03.860Z,100.00
2023-11-09T05:26:06.464Z,100.00
2023-11-09T05:31:09.632Z,100.00
2023-11-09T05:36:12.185Z,100.00
2023-11-09T05:41:16.035Z,100.00
2023-11-09T05:46:20.461Z,100.00
2023-11-09T05:51:23.489Z,100.00
2023-11-09T05:56:25.788Z,100.00
2023-11-09T06:01:32.300Z,100.00
2023-11-09T06:06:36.833Z,100.00
2023-11-09T06:11:38.692Z,100.00
2023-11-09T06:16:41.332Z,100.00
2023-11-09T06:21:43.441Z,100.00
2023-11-09T06:26:45.941Z,100.00
2023-11-09T06:31:50.033Z,100.00
2023-11-09T06:36:52.990Z,100.00
2023-11-09T06:41:55.020Z,100.00
2023-11-09T06:46:56.860Z,100.00
2023-11-09T06:51:58.753Z,100.00
2023-11-09T06:57:00.715Z,100.00
2023-11-09T07:02:02.737Z,100.00
2023-11-09T07:07:04.908Z,100.00
2023-11-09T07:12:07.086Z,100.00
2023-11-09T07:17:08.980Z,100.00
2023-11-09T07:22:11.928Z,100.00
2023-11-09T07:27:13.849Z,100.00
2023-11-09T07:32:16.128Z,100.00
2023-11-09T07:37:18.077Z,100.00
2023-11-09T07:42:20.140Z,100.00
2023-11-09T07:47:22.125Z,100.00
2023-11-09T07:52:24.578Z,100.00
2023-11-09T07:57:26.516Z,81.54
2023-11-09T08:02:30.045Z,81.18
2023-11-09T08:07:31.992Z,79.27
2023-11-09T08:12:37.078Z,80.78
2023-11-09T08:17:43.522Z,79.20
2023-11-09T08:22:47.736Z,78.83
2023-11-09T08:27:50.080Z,79.54
2023-11-09T08:32:52.364Z,78.54
2023-11-09T08:37:54.630Z,76.05
2023-11-09T08:42:57.514Z,75.93
2023-11-09T08:48:00.765Z,75.83
2023-11-09T08:53:05.054Z,74.70
2023-11-09T08:58:07.178Z,74.42
2023-11-09T09:03:09.583Z,74.92
2023-11-09T09:08:11.532Z,73.18
2023-11-09T09:13:14.397Z,72.64
2023-11-09T09:18:17.212Z,70.98
2023-11-09T09:23:22.111Z,70.89
2023-11-09T09:28:24.515Z,70.47
2023-11-09T09:33:28.198Z,70.00
2023-11-09T09:38:31.261Z,69.14
2023-11-09T09:43:40.192Z,69.33
2023-11-09T09:48:43.060Z,68.83
2023-11-09T09:53:45.911Z,68.62
2023-11-09T09:58:51.730Z,69.21
2023-11-09T10:03:54.619Z,67.32
2023-11-09T10:08:57.590Z,65.33
2023-11-09T10:14:01.257Z,66.18
2023-11-09T10:19:03.855Z,66.57
2023-11-09T10:24:08.135Z,66.21
2023-11-09T10:29:15.979Z,66.92
2023-11-09T10:34:18.331Z,67.43
2023-11-09T10:39:25.174Z,66.83
2023-11-09T10:44:31.681Z,67.45
2023-11-09T10:49:36.669Z,66.55
2023-11-09T10:54:43.252Z,66.34
2023-11-09T10:59:49.308Z,65.98
2023-11-09T11:04:57.388Z,65.71
2023-11-09T11:10:00.440Z,65.06
2023-11-09T11:15:02.787Z,64.06
2023-11-09T11:20:58.747Z,62.99
2023-11-09T11:26:12.151Z,63.76
2023-11-09T11:31:16.097Z,63.42
2023-11-09T11:36:31.338Z,61.17
2023-11-09T11:41:37.595Z,59.95
2023-11-09T11:46:41.722Z,58.33
2023-11-09T11:51:49.448Z,58.32
2023-11-09T11:56:52.894Z,56.65
2023-11-09T12:01:56.374Z,57.27
2023-11-09T12:07:01.023Z,56.17
2023-11-09T12:12:03.326Z,55.74
2023-11-09T12:17:05.828Z,56.53
2023-11-09T12:22:09.024Z,56.07
2023-11-09T12:27:12.256Z,56.06
2023-11-09T12:32:15.444Z,57.18
2023-11-09T12:37:19.569Z,56.89
2023-11-09T12:42:26.108Z,58.21
2023-11-09T12:47:32.182Z,58.50
2023-11-09T12:52:36.251Z,57.33
2023-11-09T12:57:42.732Z,57.09
2023-11-09T13:02:44.701Z,56.31
2023-11-09T13:07:48.149Z,55.94
2023-11-09T13:12:51.506Z,56.67
2023-11-09T13:17:56.949Z,54.90
2023-11-09T13:23:12.347Z,54.47
2023-11-09T13:28:17.678Z,55.57
2023-11-09T13:33:47.623Z,56.39
2023-11-09T13:38:58.417Z,56.54
2023-11-09T13:44:14.310Z,56.70
2023-11-09T13:49:17.929Z,58.12
2023-11-09T13:54:44.578Z,57.95
2023-11-09T13:59:56.771Z,58.37
2023-11-09T14:05:11.831Z,59.05
2023-11-09T14:10:16.251Z,58.69
2023-11-09T14:15:23.453Z,59.73
2023-11-09T14:20:35.380Z,59.94
2023-11-09T14:25:42.060Z,60.20
2023-11-09T14:30:48.547Z,60.80
2023-11-09T14:35:50.872Z,60.88
2023-11-09T14:40:52.966Z,61.75
2023-11-09T14:45:55.097Z,62.55
2023-11-09T14:50:57.548Z,63.34
2023-11-09T14:56:00.503Z,64.87
2023-11-09T15:01:03.643Z,64.40
2023-11-09T15:06:13.199Z,65.06
2023-11-09T15:11:15.794Z,65.70
2023-11-09T15:16:21.358Z,66.70
2023-11-09T15:21:23.594Z,67.53
2023-11-09T15:26:25.527Z,67.52
2023-11-09T15:31:28.114Z,68.28
2023-11-09T15:36:32.275Z,69.10
2023-11-09T15:41:35.425Z,69.31
2023-11-09T15:46:38.406Z,68.45
2023-11-09T15:51:42.730Z,69.04
2023-11-09T15:56:45.866Z,69.28
2023-11-09T16:01:47.875Z,69.62
2023-11-09T16:06:50.564Z,69.55
2023-11-09T16:11:52.430Z,70.03
2023-11-09T16:16:54.310Z,70.32
2023-11-09T16:21:57.582Z,70.45
2023-11-09T16:27:01.679Z,71.95
2023-11-09T16:32:06.382Z,71.68
2023-11-09T16:37:08.843Z,72.12
2023-11-09T16:42:11.823Z,72.74
2023-11-09T16:47:14.756Z,73.37
2023-11-09T16:52:16.897Z,73.58
2023-11-09T16:57:19.208Z,73.79
2023-11-09T17:02:21.734Z,73.17
2023-11-09T17:07:42.963Z,72.94
2023-11-09T17:12:45.519Z,72.09
2023-11-09T17:17:48.486Z,72.86
2023-11-09T17:22:50.544Z,72.72
2023-11-09T17:27:52.527Z,73.43
2023-11-09T17:32:55.556Z,73.94
2023-11-09T17:37:57.559Z,74.38
2023-11-09T17:42:59.505Z,74.77
2023-11-09T17:48:02.032Z,74.91
2023-11-09T17:53:06.319Z,74.39
2023-11-09T17:58:10.647Z,74.60
2023-11-09T18:03:14.403Z,75.29
2023-11-09T18:08:16.997Z,75.74
2023-11-09T18:13:20.476Z,76.06
2023-11-09T18:18:22.360Z,76.26
2023-11-09T18:23:24.251Z,76.83
2023-11-09T18:28:26.508Z,77.03
2023-11-09T18:33:29.017Z,78.19
2023-11-09T18:38:30.944Z,78.39
2023-11-09T18:43:33.446Z,78.75
2023-11-09T18:48:35.342Z,79.95
2023-11-09T18:53:37.600Z,80.45
2023-11-09T18:58:39.559Z,80.86
2023-11-09T19:08:46.295Z,84.03
2023-11-09T19:13:49.667Z,83.57
2023-11-09T19:18:51.696Z,82.77
2023-11-09T19:23:53.611Z,82.88
2023-11-09T19:28:55.473Z,83.38
2023-11-09T19:33:57.549Z,84.13
2023-11-09T19:38:59.558Z,85.75
2023-11-09T19:44:02.038Z,85.47
2023-11-09T19:49:05.478Z,85.34
2023-11-09T19:54:09.058Z,85.26
2023-11-09T19:59:11.121Z,85.02
2023-11-09T20:04:13.662Z,85.21
2023-11-09T20:09:17.356Z,85.78
2023-11-09T20:14:21.576Z,87.35
2023-11-09T20:19:24.399Z,87.52
2023-11-09T20:24:27.386Z,87.35
2023-11-09T20:29:29.786Z,87.83
2023-11-09T20:34:32.027Z,87.63
2023-11-09T20:39:40.116Z,87.26
2023-11-09T20:44:43.991Z,87.26
2023-11-09T20:49:46.025Z,87.14
2023-11-09T20:54:54.093Z,86.86
2023-11-09T20:59:56.354Z,87.54
2023-11-09T21:05:05.468Z,87.54
2023-11-09T21:10:14.000Z,87.66
2023-11-09T21:15:16.227Z,87.91
2023-11-09T21:20:18.782Z,87.94
2023-11-09T21:25:21.090Z,88.21
2023-11-09T21:30:27.347Z,88.16
2023-11-09T21:35:29.350Z,88.98
2023-11-09T21:43:18.908Z,90.95
2023-11-09T21:46:30.173Z,90.84
2023-11-09T21:51:39.711Z,91.31
2023-11-09T21:56:45.977Z,90.47
2023-11-09T22:01:47.907Z,88.81
2023-11-09T22:06:54.001Z,88.29
2023-11-09T22:11:58.968Z,88.51
2023-11-09T22:17:04.090Z,88.17
2023-11-09T22:22:06.051Z,87.85
2023-11-09T22:27:08.110Z,87.72
2023-11-09T22:32:10.006Z,87.65
2023-11-09T22:37:14.887Z,87.91
2023-11-09T22:42:16.987Z,87.48
2023-11-09T22:47:18.950Z,87.76
2023-11-09T22:52:20.843Z,87.77
2023-11-09T22:57:24.369Z,88.46
2023-11-09T23:02:26.325Z,88.22
2023-11-09T23:07:28.215Z,89.25
2023-11-09T23:12:30.215Z,88.30
2023-11-09T23:17:36.783Z,87.32
2023-11-09T23:22:48.136Z,87.42
2023-11-09T23:27:52.211Z,86.69
2023-11-09T23:32:54.289Z,86.41
2023-11-09T23:37:57.848Z,85.36
2023-11-09T23:42:59.685Z,85.60
2023-11-09T23:48:12.094Z,86.20
2023-11-09T23:53:15.161Z,85.83
2023-11-09T23:58:17.674Z,85.48
